sensor_id;sensor_type;location;lat;lon;timestamp;pressure;altitude;pressure_sealevel;temperature;humidity
59272;BME280;45043;51.068;7.026;2023-01-28T00:00:21;101553.97;;;1.66;52.04
59272;BME280;45043;51.068;7.026;2023-01-28T00:03:21;101556.91;;;1.62;51.93
59272;BME280;45043;51.068;7.026;2023-01-28T00:06:22;101547.44;;;1.48;52.53
59272;BME280;45043;51.068;7.026;2023-01-28T00:09:23;101556.72;;;1.52;52.04
59272;BME280;45043;51.068;7.026;2023-01-28T00:12:23;101552.56;;;1.49;52.34
59272;BME280;45043;51.068;7.026;2023-01-28T00:15:24;101556.13;;;1.48;52.24
59272;BME280;45043;51.068;7.026;2023-01-28T00:18:25;101551.34;;;1.42;52.22
59272;BME280;45043;51.068;7.026;2023-01-28T00:21:26;101560.78;;;1.32;52.92
59272;BME280;45043;51.068;7.026;2023-01-28T00:24:26;101545.31;;;1.29;52.67
59272;BME280;45043;51.068;7.026;2023-01-28T00:27:27;101552.44;;;1.27;53.30
59272;BME280;45043;51.068;7.026;2023-01-28T00:30:28;101542.91;;;1.26;52.84
59272;BME280;45043;51.068;7.026;2023-01-28T00:33:29;101550.03;;;1.24;53.34
59272;BME280;45043;51.068;7.026;2023-01-28T00:36:29;101541.78;;;1.17;52.82
59272;BME280;45043;51.068;7.026;2023-01-28T00:39:30;101533.19;;;1.15;53.45
59272;BME280;45043;51.068;7.026;2023-01-28T00:42:30;101542.41;;;1.21;53.31
59272;BME280;45043;51.068;7.026;2023-01-28T00:45:31;101542.63;;;1.18;53.37
59272;BME280;45043;51.068;7.026;2023-01-28T00:48:32;101537.72;;;1.13;53.26
59272;BME280;45043;51.068;7.026;2023-01-28T00:51:33;101543.28;;;1.09;53.70
59272;BME280;45043;51.068;7.026;2023-01-28T00:54:33;101538.25;;;1.05;53.24
59272;BME280;45043;51.068;7.026;2023-01-28T00:57:35;101535.09;;;1.00;53.68
59272;BME280;45043;51.068;7.026;2023-01-28T01:00:35;101523.44;;;0.93;53.83
59272;BME280;45043;51.068;7.026;2023-01-28T01:03:36;101530.72;;;0.88;53.76
59272;BME280;45043;51.068;7.026;2023-01-28T01:06:38;101541.41;;;0.72;54.14
59272;BME280;45043;51.068;7.026;2023-01-28T01:09:39;101546.25;;;0.53;54.55
59272;BME280;45043;51.068;7.026;2023-01-28T01:12:40;101544.56;;;0.39;54.74
59272;BME280;45043;51.068;7.026;2023-01-28T01:15:41;101550.06;;;0.22;55.07
59272;BME280;45043;51.068;7.026;2023-01-28T01:18:41;101552.69;;;0.22;55.37
59272;BME280;45043;51.068;7.026;2023-01-28T01:21:43;101557.50;;;0.28;54.74
59272;BME280;45043;51.068;7.026;2023-01-28T01:24:47;101558.97;;;0.45;54.43
59272;BME280;45043;51.068;7.026;2023-01-28T01:27:49;101551.56;;;0.51;54.55
59272;BME280;45043;51.068;7.026;2023-01-28T01:30:58;101555.53;;;0.57;54.43
59272;BME280;45043;51.068;7.026;2023-01-28T01:33:59;101557.97;;;0.60;54.63
59272;BME280;45043;51.068;7.026;2023-01-28T01:36:59;101554.72;;;0.56;54.34
59272;BME280;45043;51.068;7.026;2023-01-28T01:40:00;101553.34;;;0.38;54.98
59272;BME280;45043;51.068;7.026;2023-01-28T01:43:14;101551.72;;;-0.03;55.63
59272;BME280;45043;51.068;7.026;2023-01-28T01:46:19;101551.06;;;-0.33;56.12
59272;BME280;45043;51.068;7.026;2023-01-28T01:49:25;101548.47;;;-0.60;56.39
59272;BME280;45043;51.068;7.026;2023-01-28T01:52:30;101554.31;;;-0.84;57.47
59272;BME280;45043;51.068;7.026;2023-01-28T01:55:34;101553.84;;;-0.91;57.87
59272;BME280;45043;51.068;7.026;2023-01-28T01:58:38;101555.00;;;-0.68;57.59
59272;BME280;45043;51.068;7.026;2023-01-28T02:01:42;101555.25;;;-0.44;57.28
59272;BME280;45043;51.068;7.026;2023-01-28T02:04:45;101560.94;;;-0.24;57.03
59272;BME280;45043;51.068;7.026;2023-01-28T02:07:52;101551.78;;;-0.17;56.61
59272;BME280;45043;51.068;7.026;2023-01-28T02:11:20;101560.75;;;-0.21;57.01
59272;BME280;45043;51.068;7.026;2023-01-28T02:14:25;101573.09;;;-0.38;57.50
59272;BME280;45043;51.068;7.026;2023-01-28T02:17:28;101571.84;;;-0.59;57.02
59272;BME280;45043;51.068;7.026;2023-01-28T02:20:52;101576.50;;;-0.91;57.89
59272;BME280;45043;51.068;7.026;2023-01-28T02:27:21;101570.38;;;-0.63;58.38
59272;BME280;45043;51.068;7.026;2023-01-28T02:30:28;101582.69;;;-0.65;57.86
59272;BME280;45043;51.068;7.026;2023-01-28T02:33:39;101576.81;;;-0.69;58.26
59272;BME280;45043;51.068;7.026;2023-01-28T02:36:48;101578.81;;;-0.45;57.80
59272;BME280;45043;51.068;7.026;2023-01-28T02:40:06;101575.47;;;-0.20;57.40
59272;BME280;45043;51.068;7.026;2023-01-28T02:43:10;101567.66;;;-0.07;57.12
59272;BME280;45043;51.068;7.026;2023-01-28T02:49:51;101576.69;;;0.01;56.28
59272;BME280;45043;51.068;7.026;2023-01-28T02:56:47;101594.69;;;0.06;56.76
59272;BME280;45043;51.068;7.026;2023-01-28T03:03:43;101600.88;;;0.18;55.92
59272;BME280;45043;51.068;7.026;2023-01-28T03:06:49;101601.63;;;0.20;56.12
59272;BME280;45043;51.068;7.026;2023-01-28T03:09:52;101600.34;;;0.13;56.45
59272;BME280;45043;51.068;7.026;2023-01-28T03:12:58;101603.28;;;0.21;56.09
59272;BME280;45043;51.068;7.026;2023-01-28T03:16:17;101606.03;;;0.32;55.95
59272;BME280;45043;51.068;7.026;2023-01-28T03:19:36;101601.44;;;0.36;56.05
59272;BME280;45043;51.068;7.026;2023-01-28T03:23:02;101596.63;;;0.42;56.19
59272;BME280;45043;51.068;7.026;2023-01-28T03:26:26;101602.56;;;0.44;55.63
59272;BME280;45043;51.068;7.026;2023-01-28T03:29:50;101599.97;;;0.44;55.74
59272;BME280;45043;51.068;7.026;2023-01-28T03:33:12;101602.56;;;0.44;55.41
59272;BME280;45043;51.068;7.026;2023-01-28T03:36:33;101601.94;;;0.41;55.25
59272;BME280;45043;51.068;7.026;2023-01-28T03:40:21;101605.41;;;0.41;55.13
59272;BME280;45043;51.068;7.026;2023-01-28T03:43:22;101601.75;;;0.44;55.00
59272;BME280;45043;51.068;7.026;2023-01-28T03:46:24;101600.72;;;0.46;55.46
59272;BME280;45043;51.068;7.026;2023-01-28T03:49:26;101600.59;;;0.48;55.28
59272;BME280;45043;51.068;7.026;2023-01-28T03:52:31;101601.22;;;0.51;55.20
59272;BME280;45043;51.068;7.026;2023-01-28T03:55:56;101599.69;;;0.49;54.77
59272;BME280;45043;51.068;7.026;2023-01-28T03:58:56;101596.44;;;0.45;55.21
59272;BME280;45043;51.068;7.026;2023-01-28T04:01:57;101606.47;;;0.51;54.58
59272;BME280;45043;51.068;7.026;2023-01-28T04:04:57;101608.75;;;0.43;54.57
59272;BME280;45043;51.068;7.026;2023-01-28T04:07:58;101619.00;;;0.46;54.17
59272;BME280;45043;51.068;7.026;2023-01-28T04:11:20;101619.41;;;0.40;54.32
59272;BME280;45043;51.068;7.026;2023-01-28T04:14:24;101621.09;;;0.41;54.27
59272;BME280;45043;51.068;7.026;2023-01-28T04:17:36;101621.94;;;0.42;54.19
59272;BME280;45043;51.068;7.026;2023-01-28T04:20:47;101621.84;;;0.43;54.22
59272;BME280;45043;51.068;7.026;2023-01-28T04:23:49;101621.09;;;0.41;53.93
59272;BME280;45043;51.068;7.026;2023-01-28T04:26:50;101630.69;;;0.41;53.81
59272;BME280;45043;51.068;7.026;2023-01-28T04:29:50;101637.00;;;0.38;53.84
59272;BME280;45043;51.068;7.026;2023-01-28T04:33:11;101645.34;;;0.30;53.93
59272;BME280;45043;51.068;7.026;2023-01-28T04:36:37;101637.78;;;0.26;53.73
59272;BME280;45043;51.068;7.026;2023-01-28T04:40:16;101652.00;;;0.22;53.70
59272;BME280;45043;51.068;7.026;2023-01-28T04:43:32;101651.47;;;0.17;54.17
59272;BME280;45043;51.068;7.026;2023-01-28T04:46:52;101653.25;;;0.16;54.00
59272;BME280;45043;51.068;7.026;2023-01-28T04:50:25;101658.03;;;0.09;53.89
59272;BME280;45043;51.068;7.026;2023-01-28T04:53:52;101660.75;;;0.08;54.09
59272;BME280;45043;51.068;7.026;2023-01-28T04:56:58;101660.63;;;0.09;54.10
59272;BME280;45043;51.068;7.026;2023-01-28T05:00:00;101659.03;;;0.07;54.10
59272;BME280;45043;51.068;7.026;2023-01-28T05:03:01;101653.81;;;0.07;54.01
59272;BME280;45043;51.068;7.026;2023-01-28T05:06:02;101652.59;;;0.13;54.06
59272;BME280;45043;51.068;7.026;2023-01-28T05:09:16;101658.34;;;0.18;54.37
59272;BME280;45043;51.068;7.026;2023-01-28T05:12:17;101657.41;;;0.19;54.45
59272;BME280;45043;51.068;7.026;2023-01-28T05:15:19;101659.00;;;0.21;53.90
59272;BME280;45043;51.068;7.026;2023-01-28T05:18:21;101657.84;;;0.25;54.03
59272;BME280;45043;51.068;7.026;2023-01-28T05:21:35;101657.03;;;0.25;53.98
59272;BME280;45043;51.068;7.026;2023-01-28T05:24:39;101656.91;;;0.26;54.50
59272;BME280;45043;51.068;7.026;2023-01-28T05:27:41;101656.81;;;0.28;54.39
59272;BME280;45043;51.068;7.026;2023-01-28T05:30:41;101653.25;;;0.29;54.12
59272;BME280;45043;51.068;7.026;2023-01-28T05:33:42;101654.41;;;0.25;54.27
59272;BME280;45043;51.068;7.026;2023-01-28T05:36:45;101658.41;;;0.30;54.19
59272;BME280;45043;51.068;7.026;2023-01-28T05:40:06;101654.09;;;0.29;54.46
59272;BME280;45043;51.068;7.026;2023-01-28T05:43:07;101658.31;;;0.32;53.81
59272;BME280;45043;51.068;7.026;2023-01-28T05:46:14;101658.69;;;0.26;54.14
59272;BME280;45043;51.068;7.026;2023-01-28T05:49:38;101655.75;;;0.18;53.87
59272;BME280;45043;51.068;7.026;2023-01-28T05:53:05;101663.06;;;0.13;53.68
59272;BME280;45043;51.068;7.026;2023-01-28T05:56:07;101667.72;;;0.07;53.69
59272;BME280;45043;51.068;7.026;2023-01-28T05:59:10;101673.34;;;0.01;53.57
59272;BME280;45043;51.068;7.026;2023-01-28T06:02:13;101684.72;;;0.00;53.80
59272;BME280;45043;51.068;7.026;2023-01-28T06:05:16;101684.19;;;-0.05;53.73
59272;BME280;45043;51.068;7.026;2023-01-28T06:08:16;101677.59;;;-0.10;53.53
59272;BME280;45043;51.068;7.026;2023-01-28T06:11:17;101687.81;;;-0.07;54.06
59272;BME280;45043;51.068;7.026;2023-01-28T06:14:17;101688.47;;;-0.04;53.47
59272;BME280;45043;51.068;7.026;2023-01-28T06:17:36;101696.88;;;0.01;53.69
59272;BME280;45043;51.068;7.026;2023-01-28T06:20:50;101684.97;;;0.10;53.78
59272;BME280;45043;51.068;7.026;2023-01-28T06:23:51;101687.47;;;0.12;53.25
59272;BME280;45043;51.068;7.026;2023-01-28T06:26:52;101686.25;;;0.17;53.34
59272;BME280;45043;51.068;7.026;2023-01-28T06:29:53;101688.13;;;0.15;52.90
59272;BME280;45043;51.068;7.026;2023-01-28T06:32:54;101695.91;;;0.29;53.40
59272;BME280;45043;51.068;7.026;2023-01-28T06:35:55;101694.19;;;0.43;53.29
59272;BME280;45043;51.068;7.026;2023-01-28T06:38:56;101696.41;;;0.49;53.19
59272;BME280;45043;51.068;7.026;2023-01-28T06:41:56;101685.34;;;0.58;52.92
59272;BME280;45043;51.068;7.026;2023-01-28T06:44:56;101679.47;;;0.67;52.71
59272;BME280;45043;51.068;7.026;2023-01-28T06:47:57;101678.06;;;0.76;52.54
59272;BME280;45043;51.068;7.026;2023-01-28T06:50:58;101685.47;;;0.82;52.32
59272;BME280;45043;51.068;7.026;2023-01-28T06:53:58;101697.94;;;0.91;52.36
59272;BME280;45043;51.068;7.026;2023-01-28T06:56:59;101697.78;;;0.94;52.25
59272;BME280;45043;51.068;7.026;2023-01-28T06:59:59;101680.03;;;0.85;52.13
59272;BME280;45043;51.068;7.026;2023-01-28T07:02:59;101691.72;;;0.94;51.72
59272;BME280;45043;51.068;7.026;2023-01-28T07:06:00;101699.75;;;1.03;51.57
59272;BME280;45043;51.068;7.026;2023-01-28T07:09:00;101701.66;;;1.01;51.23
59272;BME280;45043;51.068;7.026;2023-01-28T07:12:01;101702.81;;;0.97;51.29
59272;BME280;45043;51.068;7.026;2023-01-28T07:15:05;101710.03;;;0.94;50.89
59272;BME280;45043;51.068;7.026;2023-01-28T07:18:06;101709.78;;;0.97;50.92
59272;BME280;45043;51.068;7.026;2023-01-28T07:21:07;101701.94;;;0.97;50.70
59272;BME280;45043;51.068;7.026;2023-01-28T07:24:07;101700.56;;;0.91;50.65
59272;BME280;45043;51.068;7.026;2023-01-28T07:27:08;101696.09;;;0.93;49.77
59272;BME280;45043;51.068;7.026;2023-01-28T07:30:09;101696.00;;;0.95;50.13
59272;BME280;45043;51.068;7.026;2023-01-28T07:33:10;101696.31;;;1.03;49.96
59272;BME280;45043;51.068;7.026;2023-01-28T07:36:10;101695.66;;;0.99;50.20
59272;BME280;45043;51.068;7.026;2023-01-28T07:39:11;101689.91;;;1.07;50.08
59272;BME280;45043;51.068;7.026;2023-01-28T07:42:12;101693.38;;;1.07;49.79
59272;BME280;45043;51.068;7.026;2023-01-28T07:45:19;101690.75;;;1.07;49.49
59272;BME280;45043;51.068;7.026;2023-01-28T07:48:20;101684.16;;;1.02;49.59
59272;BME280;45043;51.068;7.026;2023-01-28T07:51:20;101696.31;;;1.16;48.82
59272;BME280;45043;51.068;7.026;2023-01-28T07:54:21;101702.56;;;1.26;49.02
59272;BME280;45043;51.068;7.026;2023-01-28T07:57:21;101695.88;;;1.35;48.44
59272;BME280;45043;51.068;7.026;2023-01-28T08:00:27;101697.53;;;1.48;48.11
59272;BME280;45043;51.068;7.026;2023-01-28T08:03:29;101703.50;;;1.50;47.83
59272;BME280;45043;51.068;7.026;2023-01-28T08:06:29;101702.06;;;1.46;47.97
59272;BME280;45043;51.068;7.026;2023-01-28T08:09:30;101719.09;;;1.52;47.53
59272;BME280;45043;51.068;7.026;2023-01-28T08:12:33;101729.38;;;1.55;47.67
59272;BME280;45043;51.068;7.026;2023-01-28T08:15:33;101735.22;;;1.59;47.22
59272;BME280;45043;51.068;7.026;2023-01-28T08:18:34;101739.31;;;1.63;47.58
59272;BME280;45043;51.068;7.026;2023-01-28T08:21:34;101735.13;;;1.73;46.97
59272;BME280;45043;51.068;7.026;2023-01-28T08:24:35;101731.25;;;1.66;47.12
59272;BME280;45043;51.068;7.026;2023-01-28T08:27:35;101745.50;;;1.62;46.73
59272;BME280;45043;51.068;7.026;2023-01-28T08:30:37;101744.03;;;1.58;46.85
59272;BME280;45043;51.068;7.026;2023-01-28T08:33:38;101747.00;;;1.53;47.09
59272;BME280;45043;51.068;7.026;2023-01-28T08:36:38;101745.19;;;1.53;46.48
59272;BME280;45043;51.068;7.026;2023-01-28T08:39:39;101742.38;;;1.57;47.04
59272;BME280;45043;51.068;7.026;2023-01-28T08:42:46;101749.50;;;1.54;46.33
59272;BME280;45043;51.068;7.026;2023-01-28T08:45:47;101763.84;;;1.49;46.80
59272;BME280;45043;51.068;7.026;2023-01-28T08:48:49;101767.63;;;1.58;47.70
59272;BME280;45043;51.068;7.026;2023-01-28T08:51:50;101760.19;;;1.64;47.03
59272;BME280;45043;51.068;7.026;2023-01-28T08:54:51;101763.44;;;1.68;47.33
59272;BME280;45043;51.068;7.026;2023-01-28T08:57:51;101764.59;;;1.64;47.17
59272;BME280;45043;51.068;7.026;2023-01-28T09:00:52;101764.59;;;1.64;46.95
59272;BME280;45043;51.068;7.026;2023-01-28T09:03:52;101774.63;;;1.57;47.26
59272;BME280;45043;51.068;7.026;2023-01-28T09:06:53;101775.16;;;1.49;46.92
59272;BME280;45043;51.068;7.026;2023-01-28T09:09:53;101772.97;;;1.43;46.54
59272;BME280;45043;51.068;7.026;2023-01-28T09:12:54;101767.41;;;1.35;47.06
59272;BME280;45043;51.068;7.026;2023-01-28T09:15:55;101774.94;;;1.40;46.89
59272;BME280;45043;51.068;7.026;2023-01-28T09:18:55;101792.75;;;1.35;47.19
59272;BME280;45043;51.068;7.026;2023-01-28T09:21:56;101801.78;;;1.30;47.08
59272;BME280;45043;51.068;7.026;2023-01-28T09:24:57;101811.88;;;1.10;46.72
59272;BME280;45043;51.068;7.026;2023-01-28T09:27:57;101810.44;;;0.78;47.96
59272;BME280;45043;51.068;7.026;2023-01-28T09:31:07;101818.50;;;0.88;47.48
59272;BME280;45043;51.068;7.026;2023-01-28T09:34:08;101823.16;;;0.97;48.09
59272;BME280;45043;51.068;7.026;2023-01-28T09:37:10;101816.91;;;1.13;47.52
59272;BME280;45043;51.068;7.026;2023-01-28T09:40:26;101820.69;;;1.09;47.09
59272;BME280;45043;51.068;7.026;2023-01-28T09:43:37;101820.88;;;1.05;46.91
59272;BME280;45043;51.068;7.026;2023-01-28T09:46:42;101825.66;;;0.72;47.42
59272;BME280;45043;51.068;7.026;2023-01-28T09:49:47;101823.88;;;0.72;47.34
59272;BME280;45043;51.068;7.026;2023-01-28T09:52:55;101833.75;;;0.81;47.63
59272;BME280;45043;51.068;7.026;2023-01-28T09:56:03;101833.50;;;0.72;47.11
59272;BME280;45043;51.068;7.026;2023-01-28T09:59:19;101827.34;;;0.73;47.02
59272;BME280;45043;51.068;7.026;2023-01-28T10:02:57;101820.09;;;0.64;46.38
59272;BME280;45043;51.068;7.026;2023-01-28T10:12:39;101826.09;;;0.51;48.27
59272;BME280;45043;51.068;7.026;2023-01-28T10:19:05;101834.03;;;0.50;47.42
59272;BME280;45043;51.068;7.026;2023-01-28T10:22:19;101829.28;;;0.56;47.24
59272;BME280;45043;51.068;7.026;2023-01-28T10:25:26;101826.59;;;0.71;47.82
59272;BME280;45043;51.068;7.026;2023-01-28T10:28:28;101824.31;;;0.93;47.15
59272;BME280;45043;51.068;7.026;2023-01-28T10:31:34;101827.91;;;1.05;46.77
59272;BME280;45043;51.068;7.026;2023-01-28T10:34:36;101841.09;;;0.89;47.24
59272;BME280;45043;51.068;7.026;2023-01-28T10:37:38;101828.38;;;0.70;47.38
59272;BME280;45043;51.068;7.026;2023-01-28T10:40:41;101814.63;;;0.40;48.05
59272;BME280;45043;51.068;7.026;2023-01-28T10:43:43;101826.78;;;0.26;47.62
59272;BME280;45043;51.068;7.026;2023-01-28T10:46:45;101831.66;;;0.32;48.09
59272;BME280;45043;51.068;7.026;2023-01-28T10:49:52;101826.69;;;0.42;48.16
59272;BME280;45043;51.068;7.026;2023-01-28T10:52:58;101822.91;;;0.61;47.88
59272;BME280;45043;51.068;7.026;2023-01-28T10:56:03;101814.75;;;0.65;47.09
59272;BME280;45043;51.068;7.026;2023-01-28T10:59:34;101820.63;;;0.69;46.90
59272;BME280;45043;51.068;7.026;2023-01-28T11:02:37;101823.50;;;0.78;46.50
59272;BME280;45043;51.068;7.026;2023-01-28T11:05:50;101820.66;;;0.81;45.85
59272;BME280;45043;51.068;7.026;2023-01-28T11:08:51;101829.34;;;0.82;45.79
59272;BME280;45043;51.068;7.026;2023-01-28T11:11:52;101829.75;;;0.76;45.81
59272;BME280;45043;51.068;7.026;2023-01-28T11:15:04;101827.22;;;0.74;45.41
59272;BME280;45043;51.068;7.026;2023-01-28T11:18:17;101827.34;;;0.73;45.40
59272;BME280;45043;51.068;7.026;2023-01-28T11:21:24;101840.75;;;0.81;44.90
59272;BME280;45043;51.068;7.026;2023-01-28T11:24:32;101835.00;;;0.76;44.84
59272;BME280;45043;51.068;7.026;2023-01-28T11:27:34;101825.56;;;0.73;45.27
59272;BME280;45043;51.068;7.026;2023-01-28T11:30:37;101836.03;;;0.73;45.09
59272;BME280;45043;51.068;7.026;2023-01-28T11:33:51;101831.63;;;0.74;45.16
59272;BME280;45043;51.068;7.026;2023-01-28T11:37:11;101842.84;;;0.76;44.96
59272;BME280;45043;51.068;7.026;2023-01-28T11:40:17;101848.59;;;0.81;44.94
59272;BME280;45043;51.068;7.026;2023-01-28T11:43:25;101851.78;;;0.86;44.75
59272;BME280;45043;51.068;7.026;2023-01-28T11:56:45;101837.69;;;0.74;45.43
59272;BME280;45043;51.068;7.026;2023-01-28T12:46:55;101813.25;;;0.88;44.30
59272;BME280;45043;51.068;7.026;2023-01-28T12:50:03;101801.13;;;0.87;44.23
59272;BME280;45043;51.068;7.026;2023-01-28T12:53:39;101794.00;;;0.89;44.11
59272;BME280;45043;51.068;7.026;2023-01-28T12:56:50;101795.41;;;0.95;44.26
59272;BME280;45043;51.068;7.026;2023-01-28T13:00:05;101779.00;;;1.05;44.44
59272;BME280;45043;51.068;7.026;2023-01-28T13:06:29;101757.25;;;1.30;44.07
59272;BME280;45043;51.068;7.026;2023-01-28T13:09:34;101748.66;;;1.41;43.94
59272;BME280;45043;51.068;7.026;2023-01-28T13:12:40;101742.66;;;1.52;43.35
59272;BME280;45043;51.068;7.026;2023-01-28T13:15:43;101739.41;;;1.74;42.77
59272;BME280;45043;51.068;7.026;2023-01-28T13:18:46;101743.06;;;2.21;42.27
59272;BME280;45043;51.068;7.026;2023-01-28T13:21:47;101731.50;;;2.47;41.84
59272;BME280;45043;51.068;7.026;2023-01-28T13:24:49;101705.00;;;2.74;41.70
59272;BME280;45043;51.068;7.026;2023-01-28T13:27:58;101703.63;;;3.04;40.10
59272;BME280;45043;51.068;7.026;2023-01-28T13:31:09;101690.44;;;3.39;39.81
59272;BME280;45043;51.068;7.026;2023-01-28T13:34:36;101681.59;;;3.63;38.90
59272;BME280;45043;51.068;7.026;2023-01-28T13:37:44;101677.13;;;3.86;38.54
59272;BME280;45043;51.068;7.026;2023-01-28T13:41:14;101697.03;;;4.11;38.23
59272;BME280;45043;51.068;7.026;2023-01-28T13:47:36;101739.78;;;4.56;36.71
59272;BME280;45043;51.068;7.026;2023-01-28T13:50:40;101731.19;;;4.86;37.17
59272;BME280;45043;51.068;7.026;2023-01-28T13:54:01;101726.16;;;5.25;36.24
59272;BME280;45043;51.068;7.026;2023-01-28T14:04:49;101726.19;;;6.06;34.76
59272;BME280;45043;51.068;7.026;2023-01-28T14:18:24;101762.31;;;6.25;34.30
59272;BME280;45043;51.068;7.026;2023-01-28T14:21:29;101761.03;;;6.19;34.29
59272;BME280;45043;51.068;7.026;2023-01-28T14:24:32;101766.50;;;5.77;35.21
59272;BME280;45043;51.068;7.026;2023-01-28T14:27:38;101765.50;;;5.78;35.09
59272;BME280;45043;51.068;7.026;2023-01-28T14:31:48;101764.22;;;6.03;34.72
59272;BME280;45043;51.068;7.026;2023-01-28T14:37:30;101759.56;;;6.36;33.74
59272;BME280;45043;51.068;7.026;2023-01-28T14:40:36;101755.81;;;6.48;33.62
59272;BME280;45043;51.068;7.026;2023-01-28T14:43:40;101740.78;;;6.29;33.24
59272;BME280;45043;51.068;7.026;2023-01-28T14:46:56;101753.09;;;6.00;33.74
59272;BME280;45043;51.068;7.026;2023-01-28T14:53:44;101736.78;;;6.54;33.14
59272;BME280;45043;51.068;7.026;2023-01-28T15:00:35;101733.41;;;7.01;32.41
59272;BME280;45043;51.068;7.026;2023-01-28T15:03:44;101727.84;;;7.04;31.48
59272;BME280;45043;51.068;7.026;2023-01-28T15:06:45;101722.84;;;6.81;32.30
59272;BME280;45043;51.068;7.026;2023-01-28T15:09:58;101720.38;;;6.70;32.36
59272;BME280;45043;51.068;7.026;2023-01-28T15:13:22;101706.19;;;6.81;31.93
59272;BME280;45043;51.068;7.026;2023-01-28T15:16:27;101703.69;;;6.70;32.20
59272;BME280;45043;51.068;7.026;2023-01-28T15:19:33;101699.53;;;6.28;32.80
59272;BME280;45043;51.068;7.026;2023-01-28T15:22:36;101714.25;;;6.02;32.79
59272;BME280;45043;51.068;7.026;2023-01-28T15:25:37;101714.19;;;5.92;32.79
59272;BME280;45043;51.068;7.026;2023-01-28T15:28:38;101709.22;;;5.99;33.16
59272;BME280;45043;51.068;7.026;2023-01-28T15:31:47;101708.13;;;6.01;32.59
59272;BME280;45043;51.068;7.026;2023-01-28T15:34:50;101719.34;;;5.94;33.09
59272;BME280;45043;51.068;7.026;2023-01-28T15:37:50;101722.38;;;5.79;33.12
59272;BME280;45043;51.068;7.026;2023-01-28T15:40:58;101719.22;;;5.55;33.42
59272;BME280;45043;51.068;7.026;2023-01-28T15:43:59;101741.38;;;5.43;33.79
59272;BME280;45043;51.068;7.026;2023-01-28T15:47:03;101735.47;;;5.29;33.85
59272;BME280;45043;51.068;7.026;2023-01-28T15:50:21;101744.97;;;5.00;33.96
59272;BME280;45043;51.068;7.026;2023-01-28T15:53:23;101733.59;;;4.57;34.61
59272;BME280;45043;51.068;7.026;2023-01-28T15:56:28;101742.75;;;4.42;34.68
59272;BME280;45043;51.068;7.026;2023-01-28T15:59:30;101745.97;;;4.34;35.66
59272;BME280;45043;51.068;7.026;2023-01-28T16:02:31;101743.19;;;4.04;35.28
59272;BME280;45043;51.068;7.026;2023-01-28T16:05:36;101742.25;;;3.48;35.74
59272;BME280;45043;51.068;7.026;2023-01-28T16:11:51;101764.38;;;2.16;38.03
59272;BME280;45043;51.068;7.026;2023-01-28T16:14:55;101773.25;;;1.51;39.08
59272;BME280;45043;51.068;7.026;2023-01-28T16:17:58;101779.31;;;1.14;39.67
59272;BME280;45043;51.068;7.026;2023-01-28T16:20:58;101783.38;;;0.92;39.90
59272;BME280;45043;51.068;7.026;2023-01-28T16:24:18;101786.34;;;0.46;41.17
59272;BME280;45043;51.068;7.026;2023-01-28T16:27:24;101784.09;;;-0.01;41.99
59272;BME280;45043;51.068;7.026;2023-01-28T16:30:26;101789.81;;;-0.38;42.81
59272;BME280;45043;51.068;7.026;2023-01-28T16:33:27;101808.28;;;-0.55;43.77
59272;BME280;45043;51.068;7.026;2023-01-28T16:36:28;101806.94;;;-0.62;43.56
59272;BME280;45043;51.068;7.026;2023-01-28T16:39:28;101811.03;;;-0.72;43.79
59272;BME280;45043;51.068;7.026;2023-01-28T16:42:30;101829.72;;;-0.50;44.16
59272;BME280;45043;51.068;7.026;2023-01-28T16:45:32;101832.53;;;-0.24;43.63
59272;BME280;45043;51.068;7.026;2023-01-28T16:48:32;101840.00;;;-0.32;44.08
59272;BME280;45043;51.068;7.026;2023-01-28T16:51:34;101840.34;;;-0.39;43.88
59272;BME280;45043;51.068;7.026;2023-01-28T16:54:35;101844.00;;;-0.27;44.07
59272;BME280;45043;51.068;7.026;2023-01-28T16:57:36;101839.06;;;-0.17;44.23
59272;BME280;45043;51.068;7.026;2023-01-28T17:00:37;101843.16;;;0.01;43.51
59272;BME280;45043;51.068;7.026;2023-01-28T17:03:38;101838.97;;;0.13;43.68
59272;BME280;45043;51.068;7.026;2023-01-28T17:06:41;101845.38;;;0.22;44.11
59272;BME280;45043;51.068;7.026;2023-01-28T17:09:43;101843.41;;;0.25;43.75
59272;BME280;45043;51.068;7.026;2023-01-28T17:12:43;101863.38;;;0.26;44.04
59272;BME280;45043;51.068;7.026;2023-01-28T17:15:46;101848.81;;;0.37;43.77
59272;BME280;45043;51.068;7.026;2023-01-28T17:18:50;101838.94;;;0.42;43.63
59272;BME280;45043;51.068;7.026;2023-01-28T17:21:51;101832.94;;;0.40;43.54
59272;BME280;45043;51.068;7.026;2023-01-28T17:24:51;101822.03;;;0.33;43.90
59272;BME280;45043;51.068;7.026;2023-01-28T17:27:52;101825.78;;;0.29;43.82
59272;BME280;45043;51.068;7.026;2023-01-28T17:30:52;101823.34;;;0.26;43.76
59272;BME280;45043;51.068;7.026;2023-01-28T17:33:54;101824.41;;;0.23;44.23
59272;BME280;45043;51.068;7.026;2023-01-28T17:36:56;101817.56;;;0.21;44.22
59272;BME280;45043;51.068;7.026;2023-01-28T17:39:56;101818.13;;;0.12;44.40
59272;BME280;45043;51.068;7.026;2023-01-28T17:42:56;101820.38;;;0.03;44.77
59272;BME280;45043;51.068;7.026;2023-01-28T17:45:57;101817.59;;;-0.08;44.76
59272;BME280;45043;51.068;7.026;2023-01-28T17:48:57;101807.72;;;-0.17;44.93
59272;BME280;45043;51.068;7.026;2023-01-28T17:51:58;101818.34;;;-0.20;45.18
59272;BME280;45043;51.068;7.026;2023-01-28T17:54:58;101814.53;;;-0.29;45.23
59272;BME280;45043;51.068;7.026;2023-01-28T17:57:59;101824.88;;;-0.42;45.61
59272;BME280;45043;51.068;7.026;2023-01-28T18:01:07;101820.00;;;-0.48;45.32
59272;BME280;45043;51.068;7.026;2023-01-28T18:04:08;101838.81;;;-0.57;45.67
59272;BME280;45043;51.068;7.026;2023-01-28T18:07:09;101845.69;;;-0.70;45.92
59272;BME280;45043;51.068;7.026;2023-01-28T18:10:12;101859.63;;;-0.85;46.17
59272;BME280;45043;51.068;7.026;2023-01-28T18:13:13;101877.00;;;-1.00;46.84
59272;BME280;45043;51.068;7.026;2023-01-28T18:16:15;101883.81;;;-0.98;46.88
59272;BME280;45043;51.068;7.026;2023-01-28T18:19:17;101879.59;;;-1.00;46.94